Pagrindinis puslapis
METAR-TAF:

METAR-TAF

Oro uostai :

Salio sala, Žaliasis Kyšulys

platuma: 16-44N, ilguma: 022-57W, Aukštis: 54 m

Dabartinis oras

Ataskaita buvo paskelbta 1 valandą ir 0 minutes, ne 05:00 UTC
Vėjas 14 kt iš Šiaurės Rytų
Temperatūra 22°C
Drėgmė 65%
Slėgis 1015 hPa
Matomumas: 6000 m
Mažai debesys ne aukštis 1400 ft
Su prošvaistėmis ne aukštis 10000 ft
Apsiniaukę ne aukštis 20000 ft

METAR: GVAC 020500Z 05014KT 6000 FEW014 BKN100 OVC200 22/15 Q1015 NOSIG

Laikas: 05:00 (06:00 UTC)

Prognozė

Ataskaita buvo paskelbta 1 valandą ir 0 minutes, ne 05:00 UTC
Prognozė galioja nuo 02 metu 06 UTC su 03 metu 12 UTC
Vėjas 18 kt iš Šiaurės Rytų
Matomumas: 4000 m
Mažai debesys ne aukštis 1400 ft
migla
Laikinai
nuo 02 metu 06 UTC su 02 metu 12 UTC
Matomumas: 6000 m
Tikimybė 40% :
Laikinai
nuo 02 metu 12 UTC su 02 metu 18 UTC
Vėjas 20 kt iš Šiaurės Rytų su gūsio iki 30 kt

TAF: GVAC 020500Z 0206/0312 05018KT 4000 HZ FEW014 TEMPO 0206/0212 6000 PROB40 TEMPO 0212/0218 05020G30KT

Orai ataskaitas ir orų prognozės (METAR, TAF).

turimą stotys yra geltonos ir raudonos taškus žemėlapyje.

Perkelti pele per norėdami pamatyti stoties vardą.

Tada spustelėkite, norėdami matyti oro stebėjimo ir prognozės.

Norėdami pakeisti žemėlapį: spustelėkite ant žalios mygtukų su juodo kryžiaus žemyn,; žalią mygtuką su brūkšneliu, jei norite nutolinti; arba žalių rodyklių gretimoms žemėlapius.


METAR-TAF: